の過去48時間の天気

Arhangel'Sk

現在時刻: 9/16 06:06 MSK (9/16 03:06 UTC) 以下の時間は現地時間です。

過去48時間のMETAR気象情報
時間 風向 風速(m/s) 視程 気温(℃) 湿度(%) 気圧(hPa) 天気現象
16 05:30 西南西 2 10km以上 6 87 987
16 05:00 西南西 3 10km以上 6 87 987
16 04:30 西南西 3 10km以上 6 87 987
16 04:00 西南西 3 10km以上 6 87 987
16 03:30 西南西 3 10km以上 7 81 988
16 03:00 西南西 3 10km以上 7 81 988
16 02:30 西南西 4 10km以上 7 81 988
16 02:00 西南西 3 10km以上 7 87 988
16 01:30 西 4 10km以上 7 87 989
16 01:00 西 3 10km以上 7 87 989
16 00:30 西 4 10km以上 7 87 989
16 00:00 西 4 10km以上 8 81 989
15 23:30 西 5 10km以上 8 81 989
15 23:00 西 5 10km以上 8 81 990
15 22:30 西 6 10km以上 8 81 990 弱いしゅう雨
15 22:00 西 6 10km以上 8 81 990 弱いしゅう雨
15 21:30 西 5 10km以上 7 93 991 弱いしゅう雨
15 21:00 西北西 6 9000m 7 93 991 弱いしゅう雨
15 20:30 西 6 10km以上 8 87 991 弱いしゅう雨
15 20:00 西北西 7 9000m 8 93 991 弱いしゅう雨
15 19:30 西北西 6 10km以上 8 93 992 弱いしゅう雨
15 19:00 西北西 8 10km以上 8 93 992 弱いしゅう雨
15 18:30 北西 8 10km以上 8 93 992 弱いしゅう雨
15 18:00 西北西 8 10km以上 8 93 992 弱いしゅう雨
15 17:30 西北西 8 10km以上 8 93 992 弱いしゅう雨
15 17:00 西北西 8 10km以上 8 93 992 弱いしゅう雨
15 16:30 北西 8 7000m 8 93 992 弱いしゅう雨
15 16:00 北西 9 8000m 8 93 993 弱いしゅう雨
15 15:30 北西 9 4800m 8 93 992 弱いしゅう雨
15 15:00 北西 9 4100m 8 93 993 弱いしゅう雨
15 14:30 北西 10 9000m 8 93 992 弱いしゅう雨
15 14:00 北西 10 9000m 8 93 993 弱いしゅう雨
15 13:30 北西 9 8000m 8 93 992 弱いしゅう雨
15 13:00 北西 8 8000m 8 93 992 弱いしゅう雨
15 12:30 北西 8 9000m 8 93 992 弱いしゅう雨
15 12:00 北西 9 9000m 8 93 992 弱いしゅう雨
15 11:30 北西 8 9000m 8 93 992 弱いしゅう雨
15 11:00 北西 9 9000m 8 93 992 弱いしゅう雨
15 10:30 北西 9 9000m 8 93 992 弱いしゅう雨
15 10:00 北西 8 10km以上 8 93 992 弱いしゅう雨
15 09:30 北西 9 10km以上 8 93 992 弱いしゅう雨
15 09:00 北西 8 9000m 8 93 992 弱いしゅう雨
15 08:30 北西 9 9000m 8 93 992 弱いしゅう雨
15 08:00 北西 8 9000m 8 93 992 弱いしゅう雨
15 07:30 北西 9 9000m 8 93 992 弱いしゅう雨
15 07:00 北北西 8 9000m 8 93 992 弱いしゅう雨
15 06:30 北西 9 8000m 8 93 992 弱いしゅう雨
15 06:00 北北西 8 9000m 8 93 992 弱いしゅう雨
15 05:30 北西 9 10km以上 8 93 992 弱いしゅう雨
15 05:00 北西 8 10km以上 8 93 992 弱いしゅう雨
15 04:30 北西 7 10km以上 8 100 992 弱いしゅう雨
15 04:00 北西 7 10km以上 9 93 992 弱いしゅう雨
15 03:30 北北西 5 10km以上 9 93 992 弱いしゅう雨
15 03:00 北北西 6 10km以上 9 93 992 弱いしゅう雨
15 02:30 北北西 5 10km以上 9 93 992 弱いしゅう雨
15 02:00 北北西 5 9000m 9 100 992 弱いしゅう雨
15 01:30 北北西 6 7000m 9 100 992 弱いしゅう雨
15 01:00 北北西 5 7000m 9 100 992 弱いしゅう雨
15 00:30 北北西 6 10km以上 10 94 992 弱いしゅう雨
15 00:00 北北西 6 3900m 10 100 992 弱いしゅう雨
14 23:30 北北西 5 4600m 10 100 993 弱いしゅう雨
14 23:00 北西 4 5000m 10 100 993 弱いしゅう雨
14 22:30 北北西 5 7000m 10 100 993 弱いしゅう雨
14 22:00 北北西 5 10km以上 10 100 994 弱いしゅう雨
14 21:30 北北西 5 9000m 10 100 994 弱いしゅう雨
14 21:00 北北西 5 10km以上 10 94 994 弱いしゅう雨
14 20:30 北北西 5 10km以上 10 94 994 弱いしゅう雨
14 20:00 北北西 5 10km以上 10 94 994 弱いしゅう雨
14 19:30 北北西 5 9000m 10 94 995 弱いしゅう雨
14 19:00 北北西 6 10km以上 10 94 995 弱いしゅう雨
14 18:30 北北西 6 10km以上 10 94 995 弱いしゅう雨
14 18:00 北北西 6 9000m 10 94 995 弱いしゅう雨
14 17:30 北北西 6 9000m 10 100 995 弱いしゅう雨
14 17:00 北北西 6 7000m 10 100 995 弱いしゅう雨
14 16:30 6 8000m 10 100 995 弱いしゅう雨
14 16:00 4 7000m 11 94 995 弱いしゅう雨
14 15:30 4 7000m 11 94 995 弱いしゅう雨
14 15:00 北北西 5 8000m 11 94 995 弱いしゅう雨
14 14:30 4 8000m 11 100 995 弱いしゅう雨
14 14:00 5 9000m 11 100 995 弱いしゅう雨
14 13:30 4 9000m 11 100 996 弱いしゅう雨
14 13:00 4 10km以上 11 100 996 弱いしゅう雨
14 12:30 3 8000m 11 100 996 弱いしゅう雨
14 12:00 北北東 3 9000m 12 94 996 弱いしゅう雨
14 11:30 北北東 2 9000m 12 94 996 弱いしゅう雨
14 11:00 北東 2 10km以上 12 94 997 弱いしゅう雨
14 10:30 不定 1 9000m 12 94 997 弱いしゅう雨
14 10:00 不定 1 10km以上 12 94 997 弱いしゅう雨
14 09:30 北北東 2 10km以上 11 100 998 弱いしゅう雨
14 09:00 不定 1 10km以上 11 100 998 弱いしゅう雨
14 08:30 不定 1 10km以上 11 100 998
14 08:00 静穏 0 10km以上 11 100 998
14 07:30 静穏 0 10km以上 11 100 998
14 07:00 静穏 0 10km以上 11 100 999
14 06:30 静穏 0 10km以上 11 100 999
ULAA 160230Z 25002MPS 220V280 9999 BKN033 06/04 Q0987 R26/190065 NOSIG RMK QFE738/0985
ULAA 160200Z 24003MPS 210V270 9999 BKN026 06/04 Q0987 R26/190065 NOSIG RMK QFE738/0985
ULAA 160130Z 24003MPS 210V270 9999 BKN026 06/04 Q0987 R26/190065 NOSIG RMK QFE739/0985
ULAA 160100Z 25003MPS 220V290 9999 BKN027CB 06/04 Q0987 R26/190065 NOSIG RMK QFE739/0985
ULAA 160030Z 25003MPS 230V290 9999 BKN027CB 07/04 Q0988 R26/190065 NOSIG RMK QFE739/0986
ULAA 160000Z 25003MPS 220V280 9999 OVC027CB 07/04 Q0988 R26/190065 NOSIG RMK QFE739/0986
ULAA 152330Z 25004MPS 220V030 9999 OVC027CB 07/04 Q0988 R26/190065 NOSIG RMK QFE740/0986
ULAA 152300Z 25003MPS 220V300 9999 OVC027CB 07/05 Q0988 R26/190065 NOSIG RMK QFE740/0986
ULAA 152230Z 27004MPS 220V300 9999 OVC028CB 07/05 Q0989 R26/190065 NOSIG RMK QFE740/0987
ULAA 152200Z 27003MPS 240V300 9999 OVC028CB 07/05 Q0989 R26/190065 NOSIG RMK QFE740/0987
ULAA 152130Z 26004MPS 210V290 9999 OVC022CB 07/05 Q0989 R26/290060 NOSIG RMK QFE740/0987
ULAA 152100Z 27004MPS 240V320 9999 OVC021CB 08/05 Q0989 R26/290060 NOSIG RMK QFE740/0987
ULAA 152030Z 27005MPS 240V310 9999 OVC026CB 08/05 Q0989 R26/290060 NOSIG RMK QFE741/0988
ULAA 152000Z 28005G10MPS 250V310 9999 OVC022CB 08/05 Q0990 R26/290060 NOSIG RMK QFE741/0988
ULAA 151930Z 28006MPS 240V310 9999 -SHRA OVC024CB 08/05 Q0990 R26/290060 NOSIG RMK QFE741/0988
ULAA 151900Z 28006MPS 240V310 9999 -SHRA OVC021CB 08/05 Q0990 R26/290060 NOSIG RMK QFE741/0988
ULAA 151830Z 28005MPS 250V330 9999 -SHRA OVC019CB 07/06 Q0991 R26/290060 NOSIG RMK QFE742/0989
ULAA 151800Z 29006G11MPS 240V320 9000 -SHRA OVC020CB 07/06 Q0991 R26/290060 NOSIG RMK QFE742/0989
ULAA 151730Z 28006MPS 250V320 9999 -SHRA OVC016CB 08/06 Q0991 R26/290060 NOSIG RMK QFE742/0989
ULAA 151700Z 30007G12MPS 270V330 9000 -SHRA OVC022CB 08/07 Q0991 R26/290060 NOSIG RMK QFE742/0990
ULAA 151630Z 30006MPS 270V340 9999 -SHRA OVC019CB 08/07 Q0992 R26/290060 NOSIG RMK QFE742/0990
ULAA 151600Z 30008MPS 270V340 9999 -SHRA OVC017CB 08/07 Q0992 R26/290060 NOSIG RMK QFE742/0990
ULAA 151530Z 31008G13MPS 270V350 9999 -SHRA OVC017CB 08/07 Q0992 R26/290060 NOSIG RMK QFE742/0990
ULAA 151500Z 30008G13MPS 270V340 9999 -SHRA OVC019CB 08/07 Q0992 R26/290060 NOSIG RMK QFE743/0990
ULAA 151430Z 30008G13MPS 270V330 9999 -SHRA OVC014CB 08/07 Q0992 R26/290060 NOSIG RMK QFE743/0990
ULAA 151400Z 30008G15MPS 250V340 9999 -SHRA OVC015CB 08/07 Q0992 R26/290060 NOSIG RMK QFE743/0990
ULAA 151330Z 31008G15MPS 270V350 7000 -SHRA OVC010CB 08/07 Q0992 R26/290060 NOSIG RMK QFE743/0991
ULAA 151300Z 31009G15MPS 280V340 8000 -SHRA OVC008CB 08/07 Q0993 R26/290060 NOSIG RMK QFE743/0991
ULAA 151230Z 31009G14MPS 280V340 4800 -SHRA OVC007CB 08/07 Q0992 R26/290060 NOSIG RMK QFE743/0991
ULAA 151200Z 31009MPS 270V350 4100 -SHRA OVC007CB 08/07 Q0993 R26/290060 NOSIG RMK QFE743/0991
ULAA 151130Z 31010G15MPS 280V350 9000 -SHRA OVC010CB 08/07 Q0992 R26/290060 NOSIG RMK QFE743/0991
ULAA 151100Z 31010MPS 280V350 9000 -SHRA OVC010CB 08/07 Q0993 R26/290060 NOSIG RMK QFE743/0991
ULAA 151030Z 31009G14MPS 260V340 8000 -SHRA OVC009CB 08/07 Q0992 R26/290060 NOSIG RMK QFE743/0991
ULAA 151000Z 31008G14MPS 270V340 8000 -SHRA OVC009CB 08/07 Q0992 R26/290060 NOSIG RMK QFE743/0991
ULAA 150930Z 31008G13MPS 280V340 9000 -SHRA OVC009CB 08/07 Q0992 R26/290060 NOSIG RMK QFE743/0990
ULAA 150900Z 31009G14MPS 280V360 9000 -SHRA OVC009CB 08/07 Q0992 R26/290060 NOSIG RMK QFE742/0990
ULAA 150830Z 31008G13MPS 270V350 9000 -SHRA OVC009CB 08/07 Q0992 R26/290060 NOSIG RMK QFE742/0990
ULAA 150800Z 31009MPS 270V340 9000 -SHRA OVC009CB 08/07 Q0992 R26/290060 NOSIG RMK QFE742/0990
ULAA 150730Z 32009G14MPS 280V340 9000 -SHRA OVC009CB 08/07 Q0992 R26/290060 NOSIG RMK QFE742/0990
ULAA 150700Z 32008G13MPS 280V350 9999 -SHRA OVC010CB 08/07 Q0992 R26/290060 NOSIG RMK QFE742/0990
ULAA 150630Z 32009G14MPS 280V350 9999 -SHRA OVC009CB 08/07 Q0992 R26/290060 NOSIG RMK QFE742/0990
ULAA 150600Z 32008G13MPS 280V360 9000 -SHRA OVC010CB 08/07 Q0992 R26/290060 NOSIG RMK QFE742/0990
ULAA 150530Z 32009G17MPS 290V010 9000 -SHRA OVC010CB 08/07 Q0992 R26/290060 NOSIG RMK QFE742/0990
ULAA 150500Z 32008G13MPS 280V350 9000 -SHRA OVC010CB 08/07 Q0992 WS R26 R26/290060 NOSIG RMK QFE742/0990
ULAA 150430Z 32009G14MPS 280V010 9000 -SHRA OVC010CB 08/07 Q0992 R26/290060 NOSIG RMK QFE742/0990
ULAA 150400Z 33008G14MPS 9000 -SHRA OVC011CB 08/07 Q0992 R26/290060 NOSIG RMK QFE742/0990
ULAA 150330Z 32009G15MPS 290V360 8000 -SHRA OVC010CB 08/07 Q0992 R26/290060 NOSIG RMK QFE742/0990
ULAA 150300Z 33008G17MPS 290V040 9000 -SHRA OVC010CB 08/07 Q0992 R26/290060 NOSIG RMK QFE742/0990
ULAA 150230Z 32009G14MPS 280V010 9999 -SHRA OVC011CB 08/07 Q0992 R26/290060 NOSIG RMK QFE742/0990
ULAA 150200Z 32008G14MPS 280V360 9999 -SHRA OVC009CB 08/07 Q0992 R26/290060 NOSIG RMK QFE742/0990
ULAA 150130Z 32007G14MPS 280V350 9999 -SHRA OVC009CB 08/08 Q0992 R26/290060 NOSIG RMK QFE742/0990
ULAA 150100Z 32007G12MPS 290V360 9999 -SHRA OVC011CB 09/08 Q0992 R26/290060 NOSIG RMK QFE743/0990
ULAA 150030Z 33005MPS 290V010 9999 -SHRA OVC009CB 09/08 Q0992 R26/290060 NOSIG RMK QFE743/0990
ULAA 150000Z 33006MPS 290V360 9999 -SHRA OVC009CB 09/08 Q0992 R26/290060 NOSIG RMK QFE743/0990
ULAA 142330Z 33005MPS 280V020 9999 -SHRA OVC010CB 09/08 Q0992 R26/290060 NOSIG RMK QFE743/0990
ULAA 142300Z 33005G11MPS 290V010 9000 -SHRA OVC009CB 09/09 Q0992 R26/290060 NOSIG RMK QFE743/0990
ULAA 142230Z 33006MPS 290V020 7000 -SHRA OVC009CB 09/09 Q0992 R26/290060 NOSIG RMK QFE743/0990
ULAA 142200Z 33005G10MPS 290V020 7000 -SHRA OVC009CB 09/09 Q0992 R26/290060 NOSIG RMK QFE743/0991
ULAA 142130Z 33006MPS 280V010 9999 -SHRA OVC008CB 10/09 Q0992 R26/290060 NOSIG RMK QFE743/0991
ULAA 142100Z 33006MPS 280V020 3900 -SHRA OVC008CB 10/10 Q0992 R26/290060 NOSIG RMK QFE743/0991
ULAA 142030Z 33005G10MPS 280V010 4600 -SHRA OVC008CB 10/10 Q0993 R26/290060 NOSIG RMK QFE743/0991
ULAA 142000Z 32004G11MPS 260V010 5000 -SHRA OVC009CB 10/10 Q0993 R26/290060 NOSIG RMK QFE743/0991
ULAA 141930Z 33005MPS 280V010 7000 -SHRA OVC018CB 10/10 Q0993 R26/290060 NOSIG RMK QFE743/0991
ULAA 141900Z 33005G10MPS 290V360 9999 -SHRA OVC012CB 10/10 Q0994 R26/290060 NOSIG RMK QFE744/0992
ULAA 141830Z 33005MPS 290V010 9000 -SHRA OVC027CB 10/10 Q0994 R26/290060 NOSIG RMK QFE744/0992
ULAA 141800Z 34005MPS 280V020 9999 -SHRA OVC027CB 10/09 Q0994 R26/290060 NOSIG RMK QFE744/0992
ULAA 141730Z 34005MPS 300V020 9999 -SHRA OVC027CB 10/09 Q0994 R26/290060 NOSIG RMK QFE744/0992
ULAA 141700Z 34005MPS 300V020 9999 -SHRA OVC034CB 10/09 Q0994 R26/290060 NOSIG RMK QFE744/0993
ULAA 141630Z 34005MPS 290V020 9000 -SHRA OVC010CB 10/09 Q0995 R26/290060 NOSIG RMK QFE744/0993
ULAA 141600Z 34006MPS 300V020 9999 -SHRA OVC009CB 10/09 Q0995 R26/290060 NOSIG RMK QFE744/0993
ULAA 141530Z 34006MPS 300V020 9999 -SHRA OVC021CB 10/09 Q0995 R26/290060 NOSIG RMK QFE744/0993
ULAA 141500Z 33006MPS 300V010 9000 -SHRA OVC010CB 10/09 Q0995 R26/290060 NOSIG RMK QFE745/0993
ULAA 141430Z 34006MPS 290V020 9000 -SHRA OVC009CB 10/10 Q0995 R26/290060 NOSIG RMK QFE744/0993
ULAA 141400Z 34006MPS 300V030 7000 -SHRA OVC006CB 10/10 Q0995 R26/290060 NOSIG RMK QBB200 QFE745/0993
ULAA 141330Z 35006MPS 320V030 8000 -SHRA OVC006CB 10/10 Q0995 R26/290060 NOSIG RMK QBB200 QFE745/0993
ULAA 141300Z 35004MPS 290V040 7000 -SHRA OVC006CB 11/10 Q0995 R26/290060 NOSIG RMK QBB200 QFE745/0993
ULAA 141230Z 35004G09MPS 310V030 7000 -SHRA OVC008CB 11/10 Q0995 R08/290060 NOSIG RMK QFE745/0994
ULAA 141200Z 34005MPS 300V010 8000 -SHRA OVC007CB 11/10 Q0995 R08/290060 NOSIG RMK QFE745/0994
ULAA 141130Z 35004MPS 310V020 8000 -SHRA BKN007 OVC016CB 11/11 Q0995 R08/290060 NOSIG RMK QFE745/0994
ULAA 141100Z 35005MPS 320V020 9000 -SHRA BKN007 OVC016CB 11/11 Q0995 R08/290060 NOSIG RMK QFE746/0994
ULAA 141030Z 36004MPS 330V040 9000 -SHRA BKN007 OVC016CB 11/11 Q0996 R08/290060 NOSIG RMK QFE746/0995
ULAA 141000Z 36004MPS 330V030 9999 -SHRA BKN009 OVC016CB 11/11 Q0996 R08/290060 NOSIG RMK QFE746/0995
ULAA 140930Z 36003MPS 320V030 8000 -SHRA BKN008 OVC016CB 11/11 Q0996 R08/290060 NOSIG RMK QFE746/0995
ULAA 140900Z 02003MPS 350V050 9000 -SHRA BKN008 OVC016CB 12/11 Q0996 R08/290060 NOSIG RMK QFE746/0995
ULAA 140830Z 02002MPS 340V040 9000 -SHRA BKN007 OVC016CB 12/11 Q0996 R08/290060 NOSIG RMK QFE746/0995
ULAA 140800Z 04002MPS 350V070 9999 -SHRA BKN007 OVC016CB 12/11 Q0997 R08/290060 NOSIG RMK QFE747/0996
ULAA 140730Z VRB01MPS 9000 -SHRA BKN009 OVC016CB 12/11 Q0997 R08/290060 NOSIG RMK QFE747/0996
ULAA 140700Z VRB01MPS 9999 -SHRA BKN016CB 12/11 Q0997 R08/290060 NOSIG RMK QFE747/0996
ULAA 140630Z 03002MPS 360V060 9999 -SHRA BKN008 OVC016CB 11/11 Q0998 R08/290060 NOSIG RMK QFE747/0996
ULAA 140600Z VRB01MPS 9999 -SHRA OVC007CB 11/11 Q0998 R08/290060 NOSIG RMK QFE747/0997
ULAA 140530Z VRB01MPS 9999 OVC007CB 11/11 Q0998 R08/290060 NOSIG RMK QFE748/0997
ULAA 140500Z 00000MPS 9999 BKN014CB 11/11 Q0998 R26/290060 NOSIG RMK QFE747/0996
ULAA 140430Z 00000MPS 9999 BKN010CB 11/11 Q0998 R26/290060 NOSIG RMK QFE747/0997
ULAA 140400Z 00000MPS 9999 BKN009CB 11/11 Q0999 R26/290060 NOSIG RMK QFE748/0997
ULAA 140330Z 00000MPS 9999 BKN007CB 11/11 Q0999 R26/290060 NOSIG RMK QFE748/0997